Time;durP1;ratioP1;P1;durP2;ratioP2;P2;SDS_P1;SDS_P2;PMS_P1;PMS_P2;Temp;Humidity;BMP_temperature;BMP_pressure;BME280_temperature;BME280_humidity;BME280_pressure;Samples;Min_cycle;Max_cycle;Signal;HPM_P1;HPM_P2
2021/10/05 00:02:23;;;;;;;27.17;15.70;;;;;;;;;;5065920;28;20400;-83
2021/10/05 00:04:49;;;;;;;28.23;15.65;;;;;;;;;;5065830;28;20404;-83
2021/10/05 00:07:16;;;;;;;30.45;15.88;;;;;;;;;;5068958;28;20427;-83
2021/10/05 00:09:43;;;;;;;27.52;16.00;;;;;;;;;;5074918;28;20404;-83
2021/10/05 00:12:10;;;;;;;25.52;16.02;;;;;;;;;;5075707;28;20417;-84
2021/10/05 00:14:39;;;;;;;25.85;15.98;;;;;;;;;;5079802;28;20402;-84
2021/10/05 00:17:05;;;;;;;26.63;15.95;;;;;;;;;;5077141;28;20500;-83
2021/10/05 00:19:32;;;;;;;28.55;14.27;;;;;;;;;;5075015;28;20402;-84
2021/10/05 00:21:59;;;;;;;22.15;12.82;;;;;;;;;;5071961;28;20399;-84
2021/10/05 00:24:26;;;;;;;21.60;12.73;;;;;;;;;;5074117;28;20483;-84
2021/10/05 00:26:53;;;;;;;19.13;12.07;;;;;;;;;;5072300;28;20431;-83
2021/10/05 00:29:20;;;;;;;18.10;11.97;;;;;;;;;;5067382;28;20411;-83
2021/10/05 00:31:48;;;;;;;18.67;11.88;;;;;;;;;;5072548;28;20404;-83
2021/10/05 00:34:15;;;;;;;17.45;11.25;;;;;;;;;;5069803;28;20412;-84
2021/10/05 00:36:42;;;;;;;20.48;11.88;;;;;;;;;;5074291;28;20406;-84
2021/10/05 00:39:09;;;;;;;19.83;11.80;;;;;;;;;;5072431;28;20866;-83
2021/10/05 00:41:36;;;;;;;17.77;11.50;;;;;;;;;;5070671;28;20398;-84
2021/10/05 00:44:03;;;;;;;17.57;11.97;;;;;;;;;;5067198;28;20403;-83
2021/10/05 00:46:33;;;;;;;19.17;11.98;;;;;;;;;;5076494;28;20407;-84
2021/10/05 00:49:02;;;;;;;18.60;11.80;;;;;;;;;;5072849;28;21261;-84
2021/10/05 00:51:29;;;;;;;21.02;12.63;;;;;;;;;;5069949;28;20922;-84
2021/10/05 00:53:56;;;;;;;17.23;11.80;;;;;;;;;;5076761;28;20431;-84
2021/10/05 00:56:24;;;;;;;19.10;12.03;;;;;;;;;;5061316;28;20401;-84
2021/10/05 00:58:51;;;;;;;20.63;12.68;;;;;;;;;;5070568;28;20392;-84
2021/10/05 01:01:18;;;;;;;18.60;12.43;;;;;;;;;;5076494;28;20411;-84
2021/10/05 01:03:45;;;;;;;18.45;12.55;;;;;;;;;;5074068;28;20398;-84
2021/10/05 01:06:13;;;;;;;18.08;12.18;;;;;;;;;;5074486;28;20410;-84
2021/10/05 01:08:40;;;;;;;15.90;11.65;;;;;;;;;;5068625;28;20399;-84
2021/10/05 01:11:07;;;;;;;20.20;12.15;;;;;;;;;;5074532;28;20406;-84
2021/10/05 01:13:34;;;;;;;18.77;11.65;;;;;;;;;;5073889;28;20519;-84
2021/10/05 01:16:01;;;;;;;17.50;11.33;;;;;;;;;;5086749;28;20931;-84
2021/10/05 01:18:27;;;;;;;16.35;12.02;;;;;;;;;;5082768;28;20400;-84
2021/10/05 01:20:57;;;;;;;17.88;12.20;;;;;;;;;;5072167;28;20411;-83
2021/10/05 01:23:25;;;;;;;21.70;14.02;;;;;;;;;;5073589;28;20408;-83
2021/10/05 01:25:53;;;;;;;22.65;14.27;;;;;;;;;;5068737;28;20416;-84
2021/10/05 01:28:22;;;;;;;20.20;13.43;;;;;;;;;;5063878;28;20464;-83
2021/10/05 01:30:49;;;;;;;23.27;12.30;;;;;;;;;;5064310;28;20457;-85
2021/10/05 01:33:23;;;;;;;23.90;12.13;;;;;;;;;;5071970;28;20450;-84
2021/10/05 01:35:51;;;;;;;17.70;11.43;;;;;;;;;;5073044;28;20400;-83
2021/10/05 01:38:28;;;;;;;17.65;11.00;;;;;;;;;;5070745;28;20415;-84
2021/10/05 01:40:55;;;;;;;21.20;10.95;;;;;;;;;;5068254;28;20940;-84
2021/10/05 01:43:21;;;;;;;18.90;10.50;;;;;;;;;;5065591;28;20396;-84
2021/10/05 01:45:52;;;;;;;20.83;9.90;;;;;;;;;;5072691;28;20491;-83
2021/10/05 01:48:19;;;;;;;21.65;10.00;;;;;;;;;;5067222;28;20403;-84
2021/10/05 01:50:46;;;;;;;19.13;9.53;;;;;;;;;;5070821;28;20885;-83
2021/10/05 01:53:14;;;;;;;17.55;9.50;;;;;;;;;;5071106;28;20921;-83
2021/10/05 01:55:43;;;;;;;16.05;9.15;;;;;;;;;;5070986;28;20481;-83
2021/10/05 01:58:10;;;;;;;18.23;9.35;;;;;;;;;;5071518;28;20402;-83
2021/10/05 02:00:38;;;;;;;22.58;9.63;;;;;;;;;;5067129;28;20423;-83
2021/10/05 02:03:06;;;;;;;17.90;10.10;;;;;;;;;;5063695;28;20646;-82
2021/10/05 02:05:46;;;;;;;18.88;10.23;;;;;;;;;;5062820;28;20457;-83
2021/10/05 02:08:18;;;;;;;17.23;10.02;;;;;;;;;;5060271;28;21044;-84
2021/10/05 02:10:47;;;;;;;17.40;10.90;;;;;;;;;;5062465;28;20873;-83
2021/10/05 02:13:17;;;;;;;19.30;10.50;;;;;;;;;;5056836;28;20414;-83
2021/10/05 02:15:43;;;;;;;21.45;10.85;;;;;;;;;;5062043;28;20402;-83
2021/10/05 02:18:24;;;;;;;19.83;11.43;;;;;;;;;;5061219;28;20467;-83
2021/10/05 02:20:55;;;;;;;16.27;10.25;;;;;;;;;;5061517;28;20429;-83
2021/10/05 02:24:39;;;;;;;18.63;9.32;;;;;;;;;;5062761;28;20799;-84
2021/10/05 02:26:16;;;;;;;17.23;9.68;;;;;;;;;;5053564;28;20395;-84
2021/10/05 02:28:50;;;;;;;15.23;8.57;;;;;;;;;;5061385;28;20455;-84
2021/10/05 02:31:29;;;;;;;15.48;8.57;;;;;;;;;;5062316;28;20398;-84
2021/10/05 02:33:59;;;;;;;16.63;8.45;;;;;;;;;;5059010;28;20420;-83
2021/10/05 02:36:30;;;;;;;16.48;9.02;;;;;;;;;;5061164;28;20400;-84
2021/10/05 02:39:11;;;;;;;15.73;9.00;;;;;;;;;;5062990;28;20408;-84
2021/10/05 02:41:39;;;;;;;18.42;9.25;;;;;;;;;;5062459;28;20761;-83
2021/10/05 02:44:09;;;;;;;14.48;8.95;;;;;;;;;;5059421;28;20883;-84
2021/10/05 02:46:46;;;;;;;17.42;8.88;;;;;;;;;;5061745;28;20398;-83
2021/10/05 02:49:13;;;;;;;16.45;8.77;;;;;;;;;;5056701;28;20881;-83
2021/10/05 02:51:45;;;;;;;15.95;9.48;;;;;;;;;;5056292;28;20394;-83
2021/10/05 02:54:18;;;;;;;18.05;9.93;;;;;;;;;;5057953;28;20414;-84
2021/10/05 02:56:59;;;;;;;15.02;10.15;;;;;;;;;;5057113;28;20409;-84
2021/10/05 02:59:28;;;;;;;16.67;11.10;;;;;;;;;;5056399;28;20840;-83
2021/10/05 03:01:55;;;;;;;18.35;11.07;;;;;;;;;;5060209;28;20410;-84
2021/10/05 03:04:23;;;;;;;15.13;11.30;;;;;;;;;;5058482;28;20398;-83
2021/10/05 03:06:54;;;;;;;16.65;11.52;;;;;;;;;;5065098;28;20402;-83
2021/10/05 03:09:21;;;;;;;18.60;11.52;;;;;;;;;;5063875;28;20409;-83
2021/10/05 03:11:53;;;;;;;15.27;11.60;;;;;;;;;;5061451;28;20409;-84
2021/10/05 03:14:21;;;;;;;16.08;11.45;;;;;;;;;;5062418;28;20418;-84
2021/10/05 03:16:51;;;;;;;15.97;11.40;;;;;;;;;;5060448;28;20394;-83
2021/10/05 03:19:19;;;;;;;13.35;11.18;;;;;;;;;;5055610;28;20403;-84
2021/10/05 03:21:53;;;;;;;15.00;10.45;;;;;;;;;;5058666;28;20894;-84
2021/10/05 03:24:23;;;;;;;14.50;10.65;;;;;;;;;;5061321;28;20397;-84
2021/10/05 03:26:58;;;;;;;14.60;10.88;;;;;;;;;;5057219;28;20459;-84
2021/10/05 03:29:25;;;;;;;15.90;10.75;;;;;;;;;;5062481;28;20900;-84
2021/10/05 03:31:52;;;;;;;15.27;10.65;;;;;;;;;;5055651;28;20462;-83
2021/10/05 03:34:19;;;;;;;16.50;11.32;;;;;;;;;;5063333;28;20929;-83
2021/10/05 03:36:45;;;;;;;17.27;11.00;;;;;;;;;;5059160;28;20877;-84
2021/10/05 03:39:12;;;;;;;16.92;12.05;;;;;;;;;;5059985;28;20402;-84
2021/10/05 03:41:39;;;;;;;17.75;11.68;;;;;;;;;;5055209;28;20776;-84
2021/10/05 03:44:08;;;;;;;13.48;10.45;;;;;;;;;;5061257;28;20410;-84
2021/10/05 03:46:34;;;;;;;16.40;11.50;;;;;;;;;;5062619;28;20398;-83
2021/10/05 03:49:01;;;;;;;16.58;11.02;;;;;;;;;;5057104;28;20401;-83
2021/10/05 03:51:28;;;;;;;16.88;10.90;;;;;;;;;;5062184;28;20409;-84
2021/10/05 03:53:55;;;;;;;15.43;11.32;;;;;;;;;;5055200;28;20753;-84
2021/10/05 03:56:23;;;;;;;18.08;11.32;;;;;;;;;;5057035;28;20405;-84
2021/10/05 03:58:49;;;;;;;17.48;11.88;;;;;;;;;;5061256;28;20397;-84
2021/10/05 04:01:18;;;;;;;16.98;11.57;;;;;;;;;;5052959;28;20409;-84
2021/10/05 04:03:45;;;;;;;18.13;11.55;;;;;;;;;;5057970;28;20413;-84
2021/10/05 04:06:11;;;;;;;19.67;11.60;;;;;;;;;;5057122;28;20417;-84
2021/10/05 04:08:38;;;;;;;20.42;12.05;;;;;;;;;;5067094;28;20406;-84
2021/10/05 04:11:05;;;;;;;17.85;11.88;;;;;;;;;;5062665;28;20398;-84
2021/10/05 04:13:32;;;;;;;17.98;12.00;;;;;;;;;;5058698;28;20499;-84
2021/10/05 04:15:59;;;;;;;18.50;12.02;;;;;;;;;;5060243;28;20397;-84
2021/10/05 04:18:27;;;;;;;19.38;12.55;;;;;;;;;;5059377;28;20422;-83
2021/10/05 04:20:54;;;;;;;18.48;11.77;;;;;;;;;;5056937;28;20395;-84
2021/10/05 04:23:21;;;;;;;20.38;12.45;;;;;;;;;;5057072;28;20937;-84
2021/10/05 04:25:48;;;;;;;19.08;12.32;;;;;;;;;;5059684;28;20402;-83
2021/10/05 04:28:15;;;;;;;20.60;12.43;;;;;;;;;;5056398;28;20398;-84
2021/10/05 04:30:42;;;;;;;21.38;13.07;;;;;;;;;;5060765;28;20470;-84
2021/10/05 04:33:09;;;;;;;21.98;12.60;;;;;;;;;;5059553;28;20806;-84
2021/10/05 04:35:37;;;;;;;21.10;12.80;;;;;;;;;;5057852;28;20889;-84
2021/10/05 04:38:04;;;;;;;20.92;13.10;;;;;;;;;;5062678;28;20410;-84
2021/10/05 04:40:31;;;;;;;19.63;12.88;;;;;;;;;;5060943;28;20741;-84
2021/10/05 04:42:58;;;;;;;19.98;13.43;;;;;;;;;;5063320;28;20412;-84
2021/10/05 04:45:25;;;;;;;20.75;13.18;;;;;;;;;;5059651;28;20399;-84
2021/10/05 04:47:51;;;;;;;18.33;12.60;;;;;;;;;;5065599;28;20400;-84
2021/10/05 04:50:18;;;;;;;22.00;13.50;;;;;;;;;;5073160;28;20410;-84
2021/10/05 04:52:46;;;;;;;20.33;13.02;;;;;;;;;;5063751;28;20919;-84
2021/10/05 04:55:13;;;;;;;21.33;12.13;;;;;;;;;;5061683;28;20426;-84
2021/10/05 04:57:40;;;;;;;26.80;13.20;;;;;;;;;;5059718;28;21103;-84
2021/10/05 05:00:09;;;;;;;19.92;13.15;;;;;;;;;;5064693;28;20402;-83
2021/10/05 05:02:36;;;;;;;21.90;13.18;;;;;;;;;;5061094;28;20401;-84
2021/10/05 05:05:04;;;;;;;21.25;14.05;;;;;;;;;;5056078;28;20406;-83
2021/10/05 05:07:31;;;;;;;20.95;13.25;;;;;;;;;;5057222;28;20400;-84
2021/10/05 05:10:01;;;;;;;21.98;13.90;;;;;;;;;;5059742;28;20421;-84
2021/10/05 05:12:29;;;;;;;25.10;14.13;;;;;;;;;;5060867;28;20454;-84
2021/10/05 05:14:59;;;;;;;23.92;14.23;;;;;;;;;;5057482;28;20506;-83
2021/10/05 05:17:25;;;;;;;23.52;13.50;;;;;;;;;;5058058;28;20402;-83
2021/10/05 05:19:52;;;;;;;21.85;13.60;;;;;;;;;;5062980;28;21030;-83
2021/10/05 05:22:19;;;;;;;22.42;13.88;;;;;;;;;;5058492;28;20790;-84
2021/10/05 05:24:46;;;;;;;23.52;14.00;;;;;;;;;;5061908;28;20398;-84
2021/10/05 05:27:14;;;;;;;24.45;13.18;;;;;;;;;;5060793;28;20398;-83
2021/10/05 05:29:41;;;;;;;22.85;13.50;;;;;;;;;;5060708;28;20406;-83
2021/10/05 05:32:09;;;;;;;23.30;14.02;;;;;;;;;;5063839;28;20398;-84
2021/10/05 05:34:36;;;;;;;23.48;13.80;;;;;;;;;;5062026;28;20424;-84
2021/10/05 05:37:03;;;;;;;23.70;14.25;;;;;;;;;;5063707;28;20417;-84
2021/10/05 05:39:30;;;;;;;19.98;13.93;;;;;;;;;;5062119;28;20689;-84
2021/10/05 05:41:57;;;;;;;18.83;13.35;;;;;;;;;;5053263;28;20885;-83
2021/10/05 05:44:25;;;;;;;21.65;13.93;;;;;;;;;;5052054;28;20410;-85
2021/10/05 05:46:52;;;;;;;20.98;13.57;;;;;;;;;;5059909;28;20414;-83
2021/10/05 05:49:19;;;;;;;22.70;14.07;;;;;;;;;;5063069;28;20812;-83
2021/10/05 05:51:46;;;;;;;26.15;15.13;;;;;;;;;;5064691;28;20405;-83
2021/10/05 05:54:13;;;;;;;26.20;15.15;;;;;;;;;;5061625;28;20751;-83
2021/10/05 05:56:40;;;;;;;22.15;14.25;;;;;;;;;;5056939;28;20759;-83
2021/10/05 05:59:07;;;;;;;26.08;14.75;;;;;;;;;;5058100;28;20398;-83
2021/10/05 06:01:35;;;;;;;24.48;14.35;;;;;;;;;;5059930;28;20398;-84
2021/10/05 06:04:02;;;;;;;24.92;14.25;;;;;;;;;;5057989;28;20397;-84
2021/10/05 06:06:30;;;;;;;23.10;14.50;;;;;;;;;;5058150;28;20402;-84
2021/10/05 06:08:57;;;;;;;23.17;14.00;;;;;;;;;;5061555;28;20492;-84
2021/10/05 06:11:24;;;;;;;23.02;14.13;;;;;;;;;;5058755;28;20817;-84
2021/10/05 06:13:51;;;;;;;20.70;13.43;;;;;;;;;;5054397;28;20416;-83
2021/10/05 06:16:19;;;;;;;23.63;13.90;;;;;;;;;;5060872;28;20530;-83
2021/10/05 06:18:47;;;;;;;20.63;13.53;;;;;;;;;;5058313;28;20892;-85
2021/10/05 06:21:14;;;;;;;22.00;13.65;;;;;;;;;;5062904;28;20480;-83
2021/10/05 06:23:41;;;;;;;21.27;13.45;;;;;;;;;;5059532;28;20413;-84
2021/10/05 06:26:08;;;;;;;23.15;13.80;;;;;;;;;;5061223;28;20398;-83
2021/10/05 06:28:35;;;;;;;22.03;12.90;;;;;;;;;;5058846;28;21305;-85
2021/10/05 06:31:03;;;;;;;23.02;12.88;;;;;;;;;;5061484;28;20398;-83
2021/10/05 06:33:30;;;;;;;21.23;13.52;;;;;;;;;;5058974;28;20493;-83
2021/10/05 06:35:59;;;;;;;19.67;12.68;;;;;;;;;;5060793;28;20887;-84
2021/10/05 06:38:26;;;;;;;20.67;12.45;;;;;;;;;;5063101;28;20411;-84
2021/10/05 06:40:53;;;;;;;21.63;12.63;;;;;;;;;;5076163;28;20392;-84
2021/10/05 06:43:20;;;;;;;21.10;12.75;;;;;;;;;;5072888;28;20723;-83
2021/10/05 06:45:48;;;;;;;19.75;12.18;;;;;;;;;;5071491;28;20437;-84
2021/10/05 06:48:15;;;;;;;21.20;12.45;;;;;;;;;;5068880;28;20889;-83
2021/10/05 06:50:42;;;;;;;20.75;12.05;;;;;;;;;;5076071;28;20400;-84
2021/10/05 06:53:15;;;;;;;22.73;14.00;;;;;;;;;;5066551;28;20807;-83
2021/10/05 06:55:44;;;;;;;23.33;13.73;;;;;;;;;;5062214;28;20970;-84
2021/10/05 06:58:11;;;;;;;23.92;14.15;;;;;;;;;;5063079;28;20407;-84
2021/10/05 07:00:38;;;;;;;21.10;14.25;;;;;;;;;;5065776;28;20484;-84
2021/10/05 07:03:05;;;;;;;23.83;14.55;;;;;;;;;;5074559;28;20400;-83
2021/10/05 07:05:32;;;;;;;20.73;13.38;;;;;;;;;;5071341;28;20404;-83
2021/10/05 07:07:59;;;;;;;23.93;13.97;;;;;;;;;;5069331;28;20474;-84
2021/10/05 07:10:29;;;;;;;19.52;12.73;;;;;;;;;;5069741;28;20423;-84
2021/10/05 07:12:56;;;;;;;26.60;13.35;;;;;;;;;;5067966;28;20407;-84
2021/10/05 07:15:23;;;;;;;22.10;12.90;;;;;;;;;;5072226;28;20416;-84
2021/10/05 07:17:53;;;;;;;23.75;13.25;;;;;;;;;;5070953;28;20884;-84
2021/10/05 07:20:20;;;;;;;20.73;13.40;;;;;;;;;;5064162;28;20494;-84
2021/10/05 07:22:47;;;;;;;24.45;13.90;;;;;;;;;;5070119;28;20902;-84
2021/10/05 07:25:15;;;;;;;22.33;14.02;;;;;;;;;;5066415;28;20536;-83
2021/10/05 07:27:50;;;;;;;22.40;13.70;;;;;;;;;;5067637;28;20769;-84
2021/10/05 07:30:18;;;;;;;23.85;13.70;;;;;;;;;;5066360;28;20814;-83
2021/10/05 07:32:45;;;;;;;22.48;12.85;;;;;;;;;;5079153;28;20664;-84
2021/10/05 07:35:12;;;;;;;20.33;12.82;;;;;;;;;;5064179;28;20435;-84
2021/10/05 07:37:38;;;;;;;22.15;13.55;;;;;;;;;;5071798;28;20404;-84
2021/10/05 07:40:07;;;;;;;19.75;12.68;;;;;;;;;;5075873;28;20429;-84
2021/10/05 07:42:34;;;;;;;20.50;11.95;;;;;;;;;;5068206;28;20481;-84
2021/10/05 07:45:02;;;;;;;18.75;11.90;;;;;;;;;;5070437;28;20407;-83
2021/10/05 07:47:29;;;;;;;19.55;11.20;;;;;;;;;;5074655;28;20415;-84
2021/10/05 07:49:58;;;;;;;21.25;12.43;;;;;;;;;;5072367;28;20400;-84
2021/10/05 07:52:24;;;;;;;19.33;11.65;;;;;;;;;;5064658;28;20487;-84
2021/10/05 07:54:51;;;;;;;19.52;11.43;;;;;;;;;;5066897;28;20502;-84
2021/10/05 07:57:18;;;;;;;21.73;11.80;;;;;;;;;;5070001;28;20418;-84
2021/10/05 07:59:45;;;;;;;19.98;11.40;;;;;;;;;;5070198;28;20407;-85
2021/10/05 08:02:13;;;;;;;22.15;11.85;;;;;;;;;;5066610;28;20396;-84
2021/10/05 08:04:40;;;;;;;21.08;11.68;;;;;;;;;;5073375;28;21031;-84
2021/10/05 08:07:07;;;;;;;18.00;11.65;;;;;;;;;;5072670;28;20404;-83
2021/10/05 08:09:34;;;;;;;19.38;11.25;;;;;;;;;;5072828;28;20395;-84
2021/10/05 08:12:01;;;;;;;20.80;11.23;;;;;;;;;;5072072;28;20408;-84
2021/10/05 08:14:28;;;;;;;17.40;11.23;;;;;;;;;;5071440;28;20413;-84
2021/10/05 08:16:55;;;;;;;19.40;11.18;;;;;;;;;;5065859;28;20756;-84
2021/10/05 08:19:23;;;;;;;20.55;11.48;;;;;;;;;;5065150;28;20403;-84
2021/10/05 08:21:50;;;;;;;19.70;11.17;;;;;;;;;;5067726;28;20481;-84
2021/10/05 08:24:19;;;;;;;18.10;11.33;;;;;;;;;;5066285;28;20408;-84
2021/10/05 08:26:46;;;;;;;20.58;11.18;;;;;;;;;;5061372;28;20407;-84
2021/10/05 08:29:13;;;;;;;18.08;11.05;;;;;;;;;;5068889;28;20405;-84
2021/10/05 08:31:40;;;;;;;17.40;11.20;;;;;;;;;;5079965;28;20500;-84
2021/10/05 08:34:06;;;;;;;15.10;11.03;;;;;;;;;;5074513;28;20516;-83
2021/10/05 08:36:35;;;;;;;16.73;11.57;;;;;;;;;;5078343;28;21255;-83
2021/10/05 08:39:01;;;;;;;18.85;11.75;;;;;;;;;;5078339;28;20487;-83
2021/10/05 08:41:28;;;;;;;19.20;11.50;;;;;;;;;;5087642;28;20404;-83
2021/10/05 08:43:55;;;;;;;18.17;11.48;;;;;;;;;;5087098;28;20383;-83
2021/10/05 08:46:22;;;;;;;21.98;11.38;;;;;;;;;;5073728;28;20403;-84
2021/10/05 08:48:49;;;;;;;18.63;11.13;;;;;;;;;;5075408;28;20411;-84
2021/10/05 08:51:15;;;;;;;18.20;11.63;;;;;;;;;;5059486;28;20407;-84
2021/10/05 08:53:44;;;;;;;17.70;10.33;;;;;;;;;;5068330;28;20405;-84
2021/10/05 08:56:11;;;;;;;18.77;11.25;;;;;;;;;;5077450;28;20431;-83
2021/10/05 08:58:40;;;;;;;18.53;11.03;;;;;;;;;;5066163;28;20396;-83
2021/10/05 09:01:09;;;;;;;15.65;10.35;;;;;;;;;;5074662;28;20416;-84
2021/10/05 09:03:38;;;;;;;19.33;10.80;;;;;;;;;;5063895;28;20402;-84
2021/10/05 09:06:12;;;;;;;15.13;10.05;;;;;;;;;;5068175;28;21752;-84
2021/10/05 09:08:41;;;;;;;18.20;10.25;;;;;;;;;;5069829;28;20404;-84
2021/10/05 09:11:10;;;;;;;15.82;10.70;;;;;;;;;;5071493;28;20804;-84
2021/10/05 09:13:41;;;;;;;14.43;9.70;;;;;;;;;;5072442;28;20401;-84
2021/10/05 09:16:27;;;;;;;17.48;9.82;;;;;;;;;;5073041;28;20431;-84
2021/10/05 09:18:56;;;;;;;13.43;9.00;;;;;;;;;;5072981;28;20392;-83
2021/10/05 09:21:23;;;;;;;11.95;8.73;;;;;;;;;;5062666;28;20902;-84
2021/10/05 09:23:55;;;;;;;12.85;7.82;;;;;;;;;;5073724;28;20870;-83
2021/10/05 09:26:34;;;;;;;10.82;7.93;;;;;;;;;;5074505;28;20436;-84
2021/10/05 09:29:24;;;;;;;12.27;7.90;;;;;;;;;;5077343;28;20963;-84
2021/10/05 09:31:54;;;;;;;11.80;8.50;;;;;;;;;;5071950;28;20454;-84
2021/10/05 09:34:32;;;;;;;15.63;7.80;;;;;;;;;;5080576;28;20396;-84
2021/10/05 09:37:04;;;;;;;14.18;7.90;;;;;;;;;;5068725;28;20459;-84
2021/10/05 09:39:37;;;;;;;9.27;6.00;;;;;;;;;;5078695;28;20438;-84
2021/10/05 09:42:05;;;;;;;9.20;6.20;;;;;;;;;;5076020;28;20414;-84
2021/10/05 09:44:32;;;;;;;11.10;6.93;;;;;;;;;;5069903;28;20906;-84
2021/10/05 09:46:59;;;;;;;10.82;6.65;;;;;;;;;;5074440;28;20398;-84
2021/10/05 09:49:26;;;;;;;11.70;7.10;;;;;;;;;;5073915;28;20457;-84
2021/10/05 09:51:58;;;;;;;9.77;6.90;;;;;;;;;;5069024;28;20404;-83
2021/10/05 09:54:26;;;;;;;8.50;6.10;;;;;;;;;;5069210;28;20812;-83
2021/10/05 09:56:53;;;;;;;11.07;6.60;;;;;;;;;;5072682;28;20433;-84
2021/10/05 09:59:22;;;;;;;11.55;7.22;;;;;;;;;;5073683;28;20409;-84
2021/10/05 10:01:49;;;;;;;11.23;7.32;;;;;;;;;;5067193;28;20408;-84
2021/10/05 10:04:17;;;;;;;10.85;7.13;;;;;;;;;;5074355;28;20482;-84
2021/10/05 10:06:46;;;;;;;10.98;6.63;;;;;;;;;;5069347;28;20409;-83
2021/10/05 10:09:14;;;;;;;8.55;6.45;;;;;;;;;;5069172;28;20432;-83
2021/10/05 10:11:41;;;;;;;11.75;6.35;;;;;;;;;;5065456;28;20404;-84
2021/10/05 10:14:08;;;;;;;11.75;6.75;;;;;;;;;;5066262;28;20956;-83
2021/10/05 10:16:37;;;;;;;10.15;7.28;;;;;;;;;;5061596;28;20434;-83
2021/10/05 10:19:04;;;;;;;9.80;6.90;;;;;;;;;;5067325;28;20488;-83
2021/10/05 10:21:33;;;;;;;11.20;7.15;;;;;;;;;;5068220;28;20390;-83
2021/10/05 10:24:13;;;;;;;10.85;6.75;;;;;;;;;;5070275;28;20400;-84
2021/10/05 10:26:44;;;;;;;10.07;6.60;;;;;;;;;;5076362;28;20409;-83
2021/10/05 10:29:13;;;;;;;14.02;7.72;;;;;;;;;;5071940;28;20397;-83
2021/10/05 10:31:43;;;;;;;13.10;7.88;;;;;;;;;;5068964;28;20483;-84
2021/10/05 10:34:20;;;;;;;13.75;8.65;;;;;;;;;;5071502;28;20776;-83
2021/10/05 10:36:49;;;;;;;13.75;9.07;;;;;;;;;;5065753;28;20417;-84
2021/10/05 10:39:18;;;;;;;13.93;9.52;;;;;;;;;;5075516;28;20400;-84
2021/10/05 10:41:58;;;;;;;13.30;9.13;;;;;;;;;;5066358;28;20888;-84
2021/10/05 10:44:28;;;;;;;13.75;9.70;;;;;;;;;;5071838;28;20392;-84
2021/10/05 10:47:06;;;;;;;12.75;9.23;;;;;;;;;;5069723;28;20911;-83
2021/10/05 10:49:33;;;;;;;12.75;8.98;;;;;;;;;;5069991;28;20940;-83
2021/10/05 10:51:59;;;;;;;12.50;9.38;;;;;;;;;;5076954;28;20397;-83
2021/10/05 10:54:27;;;;;;;14.77;9.13;;;;;;;;;;5068280;28;20453;-83
2021/10/05 10:57:00;;;;;;;13.32;8.70;;;;;;;;;;5061830;28;20422;-83
2021/10/05 10:59:28;;;;;;;11.52;8.30;;;;;;;;;;5066519;28;20464;-84
2021/10/05 11:02:01;;;;;;;13.68;9.00;;;;;;;;;;5075130;28;20407;-83
2021/10/05 11:04:28;;;;;;;11.75;8.50;;;;;;;;;;5070733;28;20398;-83
2021/10/05 11:06:57;;;;;;;10.90;8.13;;;;;;;;;;5068685;28;21295;-84
2021/10/05 11:09:29;;;;;;;10.10;8.07;;;;;;;;;;5076955;28;20407;-83
2021/10/05 11:11:58;;;;;;;11.43;7.90;;;;;;;;;;5067941;28;20483;-83
2021/10/05 11:14:28;;;;;;;10.90;8.33;;;;;;;;;;5076357;28;21068;-84
2021/10/05 11:16:57;;;;;;;10.25;7.68;;;;;;;;;;5065730;28;20426;-83
2021/10/05 11:19:28;;;;;;;13.25;7.85;;;;;;;;;;5066587;28;20752;-84
2021/10/05 11:21:56;;;;;;;11.25;7.97;;;;;;;;;;5068140;28;20518;-84
2021/10/05 11:24:23;;;;;;;13.20;8.25;;;;;;;;;;5062721;28;20407;-84
2021/10/05 11:26:52;;;;;;;13.65;8.68;;;;;;;;;;5059177;28;21145;-84
2021/10/05 11:29:26;;;;;;;12.35;7.93;;;;;;;;;;5059539;28;20753;-84
2021/10/05 11:31:58;;;;;;;12.43;7.63;;;;;;;;;;5060760;28;20448;-84
2021/10/05 11:34:25;;;;;;;11.25;7.10;;;;;;;;;;5060729;28;20405;-84
2021/10/05 11:36:53;;;;;;;11.18;7.40;;;;;;;;;;5059667;28;20425;-86
2021/10/05 11:39:22;;;;;;;10.20;6.85;;;;;;;;;;5056228;28;20490;-84
2021/10/05 11:41:50;;;;;;;9.30;6.80;;;;;;;;;;5064042;28;20425;-83
2021/10/05 11:44:19;;;;;;;8.93;6.13;;;;;;;;;;5058649;28;20404;-84
2021/10/05 11:47:00;;;;;;;11.48;6.70;;;;;;;;;;5063132;28;20411;-83
2021/10/05 11:49:29;;;;;;;10.35;6.65;;;;;;;;;;5068274;28;20412;-84
2021/10/05 11:51:56;;;;;;;10.60;6.97;;;;;;;;;;5059020;28;20425;-84
2021/10/05 11:54:25;;;;;;;9.85;7.30;;;;;;;;;;5064397;28;20402;-83
2021/10/05 11:56:53;;;;;;;10.23;6.97;;;;;;;;;;5059496;28;20418;-83
2021/10/05 11:59:37;;;;;;;9.13;6.43;;;;;;;;;;5059813;28;20421;-84
2021/10/05 12:02:08;;;;;;;9.43;6.63;;;;;;;;;;5061619;28;20402;-84
2021/10/05 12:04:35;;;;;;;10.77;6.72;;;;;;;;;;5069899;28;20875;-84
2021/10/05 12:07:05;;;;;;;10.10;7.22;;;;;;;;;;5068158;28;20411;-84
2021/10/05 12:09:33;;;;;;;9.65;6.13;;;;;;;;;;5068397;28;20397;-84
2021/10/05 12:12:07;;;;;;;8.00;6.18;;;;;;;;;;5070175;28;20405;-84
2021/10/05 12:14:38;;;;;;;8.68;6.15;;;;;;;;;;5067004;28;20402;-84
2021/10/05 12:17:11;;;;;;;8.03;6.07;;;;;;;;;;5060965;28;20426;-84
2021/10/05 12:19:39;;;;;;;9.10;6.65;;;;;;;;;;5062854;28;20873;-84
2021/10/05 12:22:09;;;;;;;10.23;6.53;;;;;;;;;;5056025;28;20416;-84
2021/10/05 12:24:44;;;;;;;9.55;6.97;;;;;;;;;;5058950;28;20488;-84
2021/10/05 12:27:17;;;;;;;7.63;6.45;;;;;;;;;;5060308;28;20402;-84
2021/10/05 12:29:53;;;;;;;9.82;6.53;;;;;;;;;;5059618;28;20410;-84
2021/10/05 12:32:33;;;;;;;7.60;5.85;;;;;;;;;;5056756;28;20402;-84
2021/10/05 12:34:59;;;;;;;7.45;6.10;;;;;;;;;;5060778;28;20500;-85
2021/10/05 12:37:30;;;;;;;9.27;6.25;;;;;;;;;;5055563;28;20411;-84
2021/10/05 12:39:59;;;;;;;8.40;5.90;;;;;;;;;;5070522;28;20399;-84
2021/10/05 12:42:45;;;;;;;10.07;6.10;;;;;;;;;;5066024;28;20898;-84
2021/10/05 12:45:17;;;;;;;7.27;5.80;;;;;;;;;;5073440;28;20408;-84
2021/10/05 12:47:58;;;;;;;7.53;5.40;;;;;;;;;;5069264;28;20394;-85
2021/10/05 12:50:26;;;;;;;7.13;5.72;;;;;;;;;;5067052;28;20430;-84
2021/10/05 12:52:55;;;;;;;7.40;5.67;;;;;;;;;;5073064;28;20396;-84
2021/10/05 12:55:26;;;;;;;7.27;4.33;;;;;;;;;;5062457;28;20722;-85
2021/10/05 12:57:53;;;;;;;5.00;3.60;;;;;;;;;;5063543;28;20437;-85
2021/10/05 13:00:21;;;;;;;4.57;2.87;;;;;;;;;;5064585;28;20417;-84
2021/10/05 13:02:48;;;;;;;4.23;2.70;;;;;;;;;;5061043;28;20400;-84
2021/10/05 13:05:17;;;;;;;3.17;2.10;;;;;;;;;;5065939;28;20414;-84
2021/10/05 13:07:44;;;;;;;3.25;2.00;;;;;;;;;;5065576;28;20867;-83
2021/10/05 13:10:12;;;;;;;4.38;1.88;;;;;;;;;;5068855;28;20398;-84
2021/10/05 13:12:39;;;;;;;3.85;1.60;;;;;;;;;;5071387;28;20409;-83
2021/10/05 13:15:07;;;;;;;3.05;1.70;;;;;;;;;;5068798;28;20406;-84
2021/10/05 13:17:33;;;;;;;2.50;1.35;;;;;;;;;;5070036;28;20777;-83
2021/10/05 13:20:01;;;;;;;7.28;2.20;;;;;;;;;;5068326;28;20398;-83
2021/10/05 13:22:29;;;;;;;3.22;1.90;;;;;;;;;;5071097;28;20405;-83
2021/10/05 13:24:56;;;;;;;4.55;2.35;;;;;;;;;;5070742;28;20409;-83
2021/10/05 13:27:22;;;;;;;4.70;2.90;;;;;;;;;;5061990;28;20407;-83
2021/10/05 13:29:50;;;;;;;4.83;2.80;;;;;;;;;;5063400;28;20416;-82
2021/10/05 13:32:17;;;;;;;5.53;3.00;;;;;;;;;;5066568;28;20855;-83
2021/10/05 13:34:44;;;;;;;10.18;3.80;;;;;;;;;;5073507;28;20401;-83
2021/10/05 13:37:11;;;;;;;9.10;3.80;;;;;;;;;;5068189;28;20917;-82
2021/10/05 13:39:39;;;;;;;7.50;3.40;;;;;;;;;;5074054;28;20877;-82
2021/10/05 13:42:06;;;;;;;10.70;4.20;;;;;;;;;;5066907;28;20406;-82
2021/10/05 13:44:33;;;;;;;16.13;6.38;;;;;;;;;;5070005;28;20401;-82
2021/10/05 13:47:01;;;;;;;12.03;5.37;;;;;;;;;;5066443;28;20426;-82
2021/10/05 13:49:27;;;;;;;8.50;4.20;;;;;;;;;;5069119;28;20409;-82
2021/10/05 13:51:54;;;;;;;12.05;4.80;;;;;;;;;;5070162;28;20447;-81
2021/10/05 13:54:21;;;;;;;10.77;4.63;;;;;;;;;;5065937;28;20467;-82
2021/10/05 13:56:49;;;;;;;12.30;4.90;;;;;;;;;;5063434;28;20411;-82
2021/10/05 13:59:16;;;;;;;9.30;4.40;;;;;;;;;;5060340;28;20404;-82
2021/10/05 14:01:43;;;;;;;7.95;4.25;;;;;;;;;;5061569;28;20398;-82
2021/10/05 14:04:10;;;;;;;9.73;4.15;;;;;;;;;;5056990;28;20410;-82
2021/10/05 14:06:36;;;;;;;12.73;4.38;;;;;;;;;;5064838;28;20410;-83
2021/10/05 14:09:03;;;;;;;9.10;4.18;;;;;;;;;;5062249;28;20409;-83
2021/10/05 14:11:30;;;;;;;7.33;3.70;;;;;;;;;;5061807;28;20490;-83
2021/10/05 14:13:58;;;;;;;8.02;4.30;;;;;;;;;;5065193;28;20451;-83
2021/10/05 14:16:26;;;;;;;6.38;4.00;;;;;;;;;;5058981;28;20411;-83
2021/10/05 14:18:53;;;;;;;6.60;4.15;;;;;;;;;;5066686;28;20400;-83
2021/10/05 14:21:20;;;;;;;8.35;4.15;;;;;;;;;;5058910;28;20410;-83
2021/10/05 14:23:48;;;;;;;10.13;4.50;;;;;;;;;;5056550;28;20406;-82
2021/10/05 14:26:15;;;;;;;7.60;4.40;;;;;;;;;;5063096;28;20440;-82
2021/10/05 14:28:42;;;;;;;6.28;3.20;;;;;;;;;;5058668;28;20812;-82
2021/10/05 14:31:11;;;;;;;4.70;2.30;;;;;;;;;;5068560;28;20884;-81
2021/10/05 14:33:38;;;;;;;3.83;1.90;;;;;;;;;;5058619;28;21266;-81